createdAt,value
2018-09-15T00:01:59.140Z,19.92
2018-09-15T00:04:27.698Z,19.80
2018-09-15T00:06:56.322Z,19.69
2018-09-15T00:09:24.882Z,19.64
2018-09-15T00:11:53.480Z,19.60
2018-09-15T00:14:22.057Z,19.58
2018-09-15T00:16:50.672Z,19.58
2018-09-15T00:19:19.241Z,19.57
2018-09-15T00:21:47.841Z,19.59
2018-09-15T00:24:16.389Z,19.59
2018-09-15T00:26:44.946Z,19.58
2018-09-15T00:29:13.565Z,19.58
2018-09-15T00:31:42.444Z,19.56
2018-09-15T00:34:11.009Z,19.55
2018-09-15T00:36:39.624Z,19.56
2018-09-15T00:39:10.536Z,19.61
2018-09-15T00:41:39.103Z,19.63
2018-09-15T00:44:07.880Z,19.65
2018-09-15T00:46:36.450Z,19.66
2018-09-15T00:49:05.132Z,19.67
2018-09-15T00:51:34.187Z,19.69
2018-09-15T00:54:02.744Z,19.70
2018-09-15T00:56:31.404Z,19.71
2018-09-15T00:58:59.967Z,19.68
2018-09-15T01:01:32.928Z,19.71
2018-09-15T01:04:02.886Z,19.69
2018-09-15T01:06:31.455Z,19.74
2018-09-15T01:09:00.256Z,19.74
2018-09-15T01:11:28.923Z,19.76
2018-09-15T01:13:57.944Z,19.77
2018-09-15T01:16:26.616Z,19.79
2018-09-15T01:18:55.160Z,19.76
2018-09-15T01:21:23.739Z,19.76
2018-09-15T01:23:52.400Z,19.77
2018-09-15T01:26:20.940Z,19.79
2018-09-15T01:28:51.287Z,19.78
2018-09-15T01:31:22.407Z,19.78
2018-09-15T01:33:51.361Z,19.74
2018-09-15T01:36:19.909Z,19.75
2018-09-15T01:38:48.976Z,19.74
2018-09-15T01:41:17.563Z,19.73
2018-09-15T01:43:46.108Z,19.71
2018-09-15T01:46:15.007Z,19.67
2018-09-15T01:48:44.427Z,19.65
2018-09-15T01:51:13.017Z,19.66
2018-09-15T01:53:41.723Z,19.66
2018-09-15T01:56:10.295Z,19.60
2018-09-15T01:58:38.835Z,19.54
2018-09-15T02:01:07.427Z,19.53
2018-09-15T02:03:35.975Z,19.51
2018-09-15T02:06:04.638Z,19.52
2018-09-15T02:08:33.244Z,19.49
2018-09-15T02:11:01.803Z,19.46
2018-09-15T02:13:30.351Z,19.44
2018-09-15T02:15:59.038Z,19.43
2018-09-15T02:18:27.591Z,19.35
2018-09-15T02:20:56.147Z,19.32
2018-09-15T02:23:24.820Z,19.32
2018-09-15T02:25:53.366Z,19.30
2018-09-15T02:28:21.923Z,19.23
2018-09-15T02:30:50.571Z,19.24
2018-09-15T02:33:19.129Z,19.22
2018-09-15T02:35:47.675Z,19.23
2018-09-15T02:38:16.344Z,19.21
2018-09-15T02:40:44.899Z,19.18
2018-09-15T02:43:13.623Z,19.16
2018-09-15T02:45:42.287Z,19.17
2018-09-15T02:48:10.892Z,19.18
2018-09-15T02:50:39.443Z,19.17
2018-09-15T02:53:08.079Z,19.16
2018-09-15T02:55:36.644Z,19.15
2018-09-15T02:58:05.243Z,19.13
2018-09-15T03:00:33.858Z,19.13
2018-09-15T03:03:02.399Z,19.13
2018-09-15T03:05:30.966Z,19.11
2018-09-15T03:07:59.636Z,19.10
2018-09-15T03:10:28.205Z,19.09
2018-09-15T03:12:56.776Z,19.07
2018-09-15T03:15:25.679Z,19.03
2018-09-15T03:17:54.424Z,18.98
2018-09-15T03:20:22.979Z,18.93
2018-09-15T03:22:51.648Z,18.88
2018-09-15T03:25:20.207Z,18.87
2018-09-15T03:27:48.784Z,18.86
2018-09-15T03:30:17.367Z,18.83
2018-09-15T03:32:45.912Z,18.85
2018-09-15T03:35:14.460Z,18.81
2018-09-15T03:37:43.119Z,18.78
2018-09-15T03:40:11.712Z,18.74
2018-09-15T03:42:40.448Z,18.74
2018-09-15T03:45:09.162Z,18.69
2018-09-15T03:47:37.764Z,18.69
2018-09-15T03:50:06.556Z,18.67
2018-09-15T03:52:35.696Z,18.67
2018-09-15T03:55:04.302Z,18.62
2018-09-15T03:57:32.855Z,18.60
2018-09-15T04:00:01.464Z,18.59
2018-09-15T04:02:30.024Z,18.56
2018-09-15T04:04:58.579Z,18.54
2018-09-15T04:07:27.239Z,18.51
2018-09-15T04:09:55.795Z,18.50
2018-09-15T04:12:24.360Z,18.49
2018-09-15T04:14:52.954Z,18.49
2018-09-15T04:17:21.508Z,18.51
2018-09-15T04:19:50.079Z,18.49
2018-09-15T04:22:18.726Z,18.48
2018-09-15T04:24:47.292Z,18.50
2018-09-15T04:27:16.099Z,18.54
2018-09-15T04:29:45.335Z,18.53
2018-09-15T04:32:13.892Z,18.50
2018-09-15T04:34:42.516Z,18.47
2018-09-15T04:37:11.187Z,18.50
2018-09-15T04:39:39.748Z,18.51
2018-09-15T04:42:08.291Z,18.45
2018-09-15T04:44:36.935Z,18.45
2018-09-15T04:47:05.519Z,18.39
2018-09-15T04:49:34.084Z,18.38
2018-09-15T04:52:02.696Z,18.40
2018-09-15T04:54:31.283Z,18.28
2018-09-15T04:56:59.823Z,18.32
2018-09-15T04:59:28.487Z,18.35
2018-09-15T05:01:57.059Z,18.36
2018-09-15T05:04:25.619Z,18.38
2018-09-15T05:06:54.295Z,18.36
2018-09-15T05:09:22.843Z,18.36
2018-09-15T05:11:51.412Z,18.36
2018-09-15T05:14:20.083Z,18.30
2018-09-15T05:16:48.644Z,18.25
2018-09-15T05:19:17.187Z,18.24
2018-09-15T05:21:45.843Z,18.27
2018-09-15T05:24:14.468Z,18.25
2018-09-15T05:26:43.019Z,18.22
2018-09-15T05:29:11.723Z,18.24
2018-09-15T05:31:40.312Z,18.23
2018-09-15T05:34:08.863Z,18.23
2018-09-15T05:36:37.499Z,18.23
2018-09-15T05:39:09.497Z,18.18
2018-09-15T05:41:38.180Z,18.17
2018-09-15T05:44:06.739Z,18.19
2018-09-15T05:46:35.287Z,18.21
2018-09-15T05:49:03.871Z,18.18
2018-09-15T05:51:32.680Z,18.23
2018-09-15T05:54:01.267Z,18.21
2018-09-15T05:56:30.220Z,18.19
2018-09-15T05:58:58.787Z,18.19
2018-09-15T06:01:27.405Z,18.22
2018-09-15T06:03:56.207Z,18.24
2018-09-15T06:06:24.767Z,18.46
2018-09-15T06:08:53.316Z,18.78
2018-09-15T06:11:21.981Z,19.07
2018-09-15T06:13:50.612Z,19.26
2018-09-15T06:16:19.151Z,19.32
2018-09-15T06:18:47.775Z,19.34
2018-09-15T06:21:16.331Z,19.55
2018-09-15T06:23:44.881Z,19.77
2018-09-15T06:26:14.267Z,20.02
2018-09-15T06:28:43.204Z,20.23
2018-09-15T06:31:11.753Z,20.39
2018-09-15T06:33:40.353Z,20.61
2018-09-15T06:36:08.935Z,20.77
2018-09-15T06:38:37.492Z,20.89
2018-09-15T06:41:06.107Z,21.07
2018-09-15T06:43:34.659Z,21.14
2018-09-15T06:46:03.224Z,21.34
2018-09-15T06:48:32.235Z,21.43
2018-09-15T06:51:00.794Z,21.33
2018-09-15T06:53:29.367Z,21.22
2018-09-15T06:55:58.047Z,21.32
2018-09-15T06:58:26.603Z,21.51
2018-09-15T07:00:55.233Z,21.82
2018-09-15T07:03:23.808Z,22.11
2018-09-15T07:05:52.368Z,21.82
2018-09-15T07:08:20.923Z,21.97
2018-09-15T07:10:49.543Z,22.53
2018-09-15T07:13:18.106Z,22.81
2018-09-15T07:15:46.667Z,23.09
2018-09-15T07:18:15.464Z,23.03
2018-09-15T07:20:44.791Z,23.00
2018-09-15T07:23:13.351Z,23.42
2018-09-15T07:25:42.079Z,23.09
2018-09-15T07:28:10.651Z,23.18
2018-09-15T07:30:39.219Z,23.62
2018-09-15T07:33:07.911Z,24.06
2018-09-15T07:35:37.247Z,24.47
2018-09-15T07:38:05.915Z,24.44
2018-09-15T07:40:34.547Z,24.61
2018-09-15T07:43:03.115Z,24.54
2018-09-15T07:45:31.652Z,24.91
2018-09-15T07:48:00.243Z,24.85
2018-09-15T07:50:28.791Z,24.76
2018-09-15T07:52:57.445Z,25.04
2018-09-15T07:55:26.023Z,25.09
2018-09-15T07:57:54.766Z,25.23
2018-09-15T08:00:23.159Z,25.30
2018-09-15T08:02:51.751Z,25.51
2018-09-15T08:05:20.325Z,24.96
2018-09-15T08:07:48.876Z,25.48
2018-09-15T08:10:17.539Z,25.40
2018-09-15T08:12:46.087Z,25.23
2018-09-15T08:15:14.643Z,25.69
2018-09-15T08:17:43.216Z,26.07
2018-09-15T08:20:11.786Z,25.86
2018-09-15T08:22:40.344Z,26.17
2018-09-15T08:25:09.850Z,25.38
2018-09-15T08:27:38.490Z,25.14
2018-09-15T08:30:07.086Z,25.82
2018-09-15T08:32:35.688Z,26.05
2018-09-15T08:35:04.260Z,25.74
2018-09-15T08:37:32.835Z,26.37
2018-09-15T08:40:01.411Z,26.34
2018-09-15T08:42:29.963Z,25.36
2018-09-15T08:44:58.583Z,25.46
2018-09-15T08:47:27.287Z,26.25
2018-09-15T08:49:55.836Z,26.93
2018-09-15T08:52:24.394Z,27.45
2018-09-15T08:54:53.087Z,27.40
2018-09-15T08:57:21.645Z,26.64
2018-09-15T08:59:50.202Z,27.46
2018-09-15T09:02:18.820Z,27.26
2018-09-15T09:04:47.411Z,27.25
2018-09-15T09:07:15.960Z,26.63
2018-09-15T09:09:44.644Z,26.38
2018-09-15T09:12:13.208Z,26.34
2018-09-15T09:14:41.759Z,25.64
2018-09-15T09:17:10.437Z,25.82
2018-09-15T09:19:38.995Z,26.18
2018-09-15T09:22:07.544Z,26.96
2018-09-15T09:24:36.126Z,27.34
2018-09-15T09:27:04.683Z,27.72
2018-09-15T09:29:33.239Z,28.20
2018-09-15T09:32:01.847Z,28.05
2018-09-15T09:34:30.391Z,27.45
2018-09-15T09:36:58.931Z,26.57
2018-09-15T09:39:27.648Z,25.70
2018-09-15T09:41:56.203Z,24.89
2018-09-15T09:44:24.752Z,24.51
2018-09-15T09:46:53.435Z,24.05
2018-09-15T09:49:21.998Z,23.60
2018-09-15T09:51:50.560Z,23.73
2018-09-15T09:54:19.172Z,24.75
2018-09-15T09:56:47.744Z,25.83
2018-09-15T09:59:16.292Z,27.26
2018-09-15T10:01:50.019Z,27.99
2018-09-15T10:04:18.597Z,27.44
2018-09-15T10:06:47.140Z,26.99
2018-09-15T10:09:15.731Z,27.55
2018-09-15T10:11:44.316Z,27.37
2018-09-15T10:14:12.875Z,26.30
2018-09-15T10:16:41.581Z,25.54
2018-09-15T10:19:10.132Z,24.49
2018-09-15T10:21:38.778Z,24.20
2018-09-15T10:24:07.719Z,24.20
2018-09-15T10:26:36.268Z,25.38
2018-09-15T10:29:04.834Z,26.87
2018-09-15T10:31:33.455Z,28.10
2018-09-15T10:34:02.011Z,27.74
2018-09-15T10:36:30.568Z,28.40
2018-09-15T10:38:59.251Z,28.24
2018-09-15T10:41:27.796Z,28.00
2018-09-15T10:43:56.365Z,28.69
2018-09-15T10:46:25.044Z,28.99
2018-09-15T10:48:53.607Z,27.93
2018-09-15T10:51:22.194Z,26.76
2018-09-15T10:53:51.255Z,26.83
2018-09-15T10:56:19.831Z,27.63
2018-09-15T10:58:48.387Z,26.68
2018-09-15T11:01:16.999Z,26.13
2018-09-15T11:03:45.555Z,25.54
2018-09-15T11:06:14.104Z,24.64
2018-09-15T11:08:42.853Z,24.51
2018-09-15T11:11:11.411Z,24.40
2018-09-15T11:13:40.043Z,24.20
2018-09-15T11:16:08.667Z,24.14
2018-09-15T11:18:37.219Z,24.14
2018-09-15T11:21:05.879Z,25.98
2018-09-15T11:23:34.487Z,28.82
2018-09-15T11:26:03.058Z,31.09
2018-09-15T11:28:31.618Z,30.07
2018-09-15T11:31:00.271Z,30.44
2018-09-15T11:33:28.824Z,29.05
2018-09-15T11:35:57.382Z,29.91
2018-09-15T11:38:25.995Z,30.66
2018-09-15T11:40:54.546Z,31.48
2018-09-15T11:43:23.111Z,30.34
2018-09-15T11:45:51.702Z,31.73
2018-09-15T11:48:20.285Z,32.30
2018-09-15T11:50:48.876Z,33.58
2018-09-15T11:53:17.619Z,36.30
2018-09-15T11:55:46.187Z,36.55
2018-09-15T11:58:14.754Z,37.46
2018-09-15T12:00:46.999Z,37.59
2018-09-15T12:03:15.567Z,35.42
2018-09-15T12:05:44.127Z,31.77
2018-09-15T12:08:12.707Z,30.21
2018-09-15T12:10:41.273Z,28.62
2018-09-15T12:13:10.296Z,27.70
2018-09-15T12:15:38.991Z,27.23
2018-09-15T12:18:07.555Z,26.43
2018-09-15T12:20:36.095Z,25.85
2018-09-15T12:23:05.092Z,25.42
2018-09-15T12:25:33.636Z,25.15
2018-09-15T12:28:02.191Z,25.34
2018-09-15T12:30:30.881Z,25.37
2018-09-15T12:32:59.452Z,25.02
2018-09-15T12:35:28.030Z,24.74
2018-09-15T12:37:56.703Z,24.70
2018-09-15T12:40:25.264Z,24.53
2018-09-15T12:42:54.447Z,24.52
2018-09-15T12:45:23.114Z,24.52
2018-09-15T12:47:51.608Z,24.29
2018-09-15T12:50:20.175Z,24.29
2018-09-15T12:52:48.803Z,24.18
2018-09-15T12:55:17.414Z,24.10
2018-09-15T12:57:46.411Z,24.31
2018-09-15T13:00:15.102Z,24.25
2018-09-15T13:02:43.651Z,24.13
2018-09-15T13:05:12.268Z,24.05
2018-09-15T13:07:40.851Z,24.04
2018-09-15T13:10:09.456Z,23.71
2018-09-15T13:12:38.012Z,23.73
2018-09-15T13:15:06.720Z,23.91
2018-09-15T13:17:35.283Z,24.14
2018-09-15T13:20:03.839Z,24.20
2018-09-15T13:22:32.515Z,24.30
2018-09-15T13:25:01.071Z,24.37
2018-09-15T13:27:29.649Z,24.44
2018-09-15T13:29:58.378Z,24.29
2018-09-15T13:32:26.835Z,24.09
2018-09-15T13:34:56.328Z,23.84
2018-09-15T13:37:24.995Z,23.91
2018-09-15T13:39:53.559Z,23.81
2018-09-15T13:42:22.124Z,23.84
2018-09-15T13:44:50.797Z,23.85
2018-09-15T13:47:19.406Z,23.92
2018-09-15T13:49:47.973Z,23.95
2018-09-15T13:52:16.879Z,23.90
2018-09-15T13:54:45.566Z,23.90
2018-09-15T13:57:14.115Z,23.92
2018-09-15T13:59:42.727Z,23.76
2018-09-15T14:02:11.300Z,23.59
2018-09-15T14:04:39.933Z,23.37
2018-09-15T14:07:08.539Z,23.50
2018-09-15T14:09:43.474Z,23.65
2018-09-15T14:12:05.735Z,23.57
2018-09-15T14:14:34.435Z,23.49
2018-09-15T14:17:03.062Z,23.12
2018-09-15T14:19:31.604Z,23.20
2018-09-15T14:22:00.581Z,23.26
2018-09-15T14:24:29.167Z,23.21
2018-09-15T14:26:57.742Z,23.24
2018-09-15T14:29:26.372Z,23.34
2018-09-15T14:31:55.134Z,23.27
2018-09-15T14:34:23.749Z,23.34
2018-09-15T14:36:52.673Z,23.24
2018-09-15T14:39:21.670Z,23.19
2018-09-15T14:41:50.248Z,23.18
2018-09-15T14:44:18.861Z,23.16
2018-09-15T14:46:47.432Z,23.12
2018-09-15T14:49:16.008Z,23.12
2018-09-15T14:51:44.708Z,23.13
2018-09-15T14:54:13.275Z,23.11
2018-09-15T14:56:41.857Z,23.14
2018-09-15T14:59:10.852Z,23.18
2018-09-15T15:01:39.422Z,23.08
2018-09-15T15:04:07.998Z,23.07
2018-09-15T15:06:36.608Z,23.02
2018-09-15T15:09:07.674Z,23.11
2018-09-15T15:11:36.319Z,23.05
2018-09-15T15:14:04.924Z,23.17
2018-09-15T15:16:33.492Z,23.16
2018-09-15T15:19:02.187Z,23.17
2018-09-15T15:21:30.752Z,23.17
2018-09-15T15:23:59.326Z,23.13
2018-09-15T15:26:28.084Z,23.05
2018-09-15T15:28:56.608Z,23.06
2018-09-15T15:31:25.182Z,23.12
2018-09-15T15:33:53.771Z,23.14
2018-09-15T15:36:22.391Z,23.05
2018-09-15T15:38:50.947Z,22.93
2018-09-15T15:41:19.622Z,22.96
2018-09-15T15:43:48.243Z,22.92
2018-09-15T15:46:16.768Z,22.95
2018-09-15T15:48:45.360Z,22.99
2018-09-15T15:51:13.965Z,22.90
2018-09-15T15:53:42.559Z,22.82
2018-09-15T15:56:11.200Z,22.84
2018-09-15T15:58:39.860Z,22.81
2018-09-15T16:01:08.347Z,22.66
2018-09-15T16:03:36.948Z,22.55
2018-09-15T16:06:05.515Z,22.66
2018-09-15T16:08:34.083Z,22.61
2018-09-15T16:11:02.722Z,22.61
2018-09-15T16:13:31.257Z,22.61
2018-09-15T16:16:00.415Z,22.69
2018-09-15T16:18:29.014Z,22.68
2018-09-15T16:20:57.572Z,22.68
2018-09-15T16:23:26.135Z,22.58
2018-09-15T16:25:54.951Z,22.66
2018-09-15T16:28:23.515Z,22.62
2018-09-15T16:30:52.064Z,22.60
2018-09-15T16:33:20.734Z,22.60
2018-09-15T16:35:49.287Z,22.61
2018-09-15T16:38:17.912Z,22.64
2018-09-15T16:40:46.707Z,22.61
2018-09-15T16:43:15.275Z,22.61
2018-09-15T16:45:44.003Z,22.52
2018-09-15T16:48:12.706Z,22.45
2018-09-15T16:50:41.259Z,22.42
2018-09-15T16:53:09.812Z,22.38
2018-09-15T16:55:38.454Z,22.27
2018-09-15T16:58:07.019Z,22.29
2018-09-15T17:00:35.599Z,22.18
2018-09-15T17:03:04.271Z,22.17
2018-09-15T17:05:32.843Z,22.20
2018-09-15T17:08:01.412Z,22.24
2018-09-15T17:10:30.008Z,22.22
2018-09-15T17:12:58.568Z,22.14
2018-09-15T17:15:27.133Z,22.07
2018-09-15T17:17:55.811Z,22.08
2018-09-15T17:20:24.412Z,22.04
2018-09-15T17:22:53.039Z,21.96
2018-09-15T17:25:21.700Z,21.93
2018-09-15T17:27:50.235Z,21.92
2018-09-15T17:30:18.802Z,21.87
2018-09-15T17:32:47.387Z,21.90
2018-09-15T17:35:15.950Z,21.87
2018-09-15T17:37:44.514Z,21.83
2018-09-15T17:40:13.175Z,21.80
2018-09-15T17:42:41.747Z,21.75
2018-09-15T17:45:10.326Z,21.66
2018-09-15T17:47:39.007Z,21.64
2018-09-15T17:50:07.619Z,21.58
2018-09-15T17:52:36.213Z,21.50
2018-09-15T17:55:05.440Z,21.42
2018-09-15T17:57:34.020Z,21.40
2018-09-15T18:00:02.594Z,21.33
2018-09-15T18:02:31.275Z,21.24
2018-09-15T18:04:59.831Z,21.24
2018-09-15T18:07:28.392Z,21.21
2018-09-15T18:09:57.102Z,21.16
2018-09-15T18:12:25.711Z,21.13
2018-09-15T18:14:54.262Z,21.06
2018-09-15T18:17:22.991Z,21.01
2018-09-15T18:19:51.527Z,20.98
2018-09-15T18:22:20.076Z,20.95
2018-09-15T18:24:48.755Z,20.91
2018-09-15T18:27:17.331Z,20.91
2018-09-15T18:29:45.876Z,20.85
2018-09-15T18:32:15.081Z,20.84
2018-09-15T18:34:43.953Z,20.84
2018-09-15T18:37:12.505Z,20.81
2018-09-15T18:39:41.174Z,20.76
2018-09-15T18:42:09.719Z,20.71
2018-09-15T18:44:38.272Z,20.71
2018-09-15T18:47:06.876Z,20.67
2018-09-15T18:49:35.435Z,20.63
2018-09-15T18:52:03.988Z,20.59
2018-09-15T18:54:32.707Z,20.56
2018-09-15T18:57:01.287Z,20.52
2018-09-15T18:59:29.833Z,20.52
2018-09-15T19:01:58.454Z,20.46
2018-09-15T19:04:27.003Z,20.43
2018-09-15T19:06:55.559Z,20.40
2018-09-15T19:09:24.222Z,20.28
2018-09-15T19:11:52.783Z,20.28
2018-09-15T19:14:21.350Z,20.23
2018-09-15T19:16:50.020Z,20.08
2018-09-15T19:19:19.347Z,20.04
2018-09-15T19:21:47.909Z,20.04
2018-09-15T19:24:16.896Z,20.03
2018-09-15T19:26:45.475Z,20.02
2018-09-15T19:29:14.012Z,19.97
2018-09-15T19:31:42.715Z,19.84
2018-09-15T19:34:11.276Z,19.84
2018-09-15T19:36:39.840Z,19.77
2018-09-15T19:39:11.884Z,19.76
2018-09-15T19:41:40.423Z,19.74
2018-09-15T19:44:08.991Z,19.74
2018-09-15T19:46:38.205Z,19.70
2018-09-15T19:49:07.755Z,19.60
2018-09-15T19:51:36.307Z,19.53
2018-09-15T19:54:05.379Z,19.54
2018-09-15T19:56:33.947Z,19.33
2018-09-15T19:59:02.575Z,19.23
2018-09-15T20:01:31.159Z,19.13
2018-09-15T20:03:59.704Z,19.14
2018-09-15T20:06:28.264Z,19.09
2018-09-15T20:08:56.855Z,19.14
2018-09-15T20:11:25.407Z,19.14
2018-09-15T20:13:53.967Z,19.09
2018-09-15T20:16:21.384Z,19.01
2018-09-15T20:18:48.690Z,19.06
2018-09-15T20:21:16.012Z,19.01
2018-09-15T20:23:44.600Z,18.96
2018-09-15T20:26:13.168Z,18.99
2018-09-15T20:28:41.720Z,18.99
2018-09-15T20:31:10.355Z,18.94
2018-09-15T20:33:38.931Z,18.91
2018-09-15T20:36:07.667Z,18.81
2018-09-15T20:38:36.259Z,18.77
2018-09-15T20:41:04.815Z,18.72
2018-09-15T20:43:33.363Z,18.72
2018-09-15T20:46:01.971Z,18.66
2018-09-15T20:48:30.582Z,18.59
2018-09-15T20:50:59.111Z,18.53
2018-09-15T20:53:27.825Z,18.52
2018-09-15T20:55:56.463Z,18.38
2018-09-15T20:58:25.048Z,18.37
2018-09-15T21:00:53.971Z,18.30
2018-09-15T21:03:22.523Z,18.28
2018-09-15T21:05:51.129Z,18.22
2018-09-15T21:08:20.312Z,18.19
2018-09-15T21:10:48.887Z,18.13
2018-09-15T21:13:17.469Z,18.03
2018-09-15T21:15:46.145Z,17.95
2018-09-15T21:18:14.720Z,17.85
2018-09-15T21:20:43.436Z,17.80
2018-09-15T21:23:12.068Z,17.71
2018-09-15T21:25:40.622Z,17.65
2018-09-15T21:28:09.183Z,17.59
2018-09-15T21:30:37.871Z,17.55
2018-09-15T21:33:06.656Z,17.52
2018-09-15T21:35:35.220Z,17.53
2018-09-15T21:38:03.896Z,17.50
2018-09-15T21:40:32.476Z,17.51
2018-09-15T21:43:01.034Z,17.47
2018-09-15T21:45:29.706Z,17.40
2018-09-15T21:47:58.299Z,17.36
2018-09-15T21:50:26.855Z,17.33
2018-09-15T21:52:55.488Z,17.27
2018-09-15T21:55:24.092Z,17.21
2018-09-15T21:57:52.797Z,17.14
2018-09-15T22:00:21.524Z,17.10
2018-09-15T22:02:50.093Z,17.07
2018-09-15T22:05:18.668Z,17.02
2018-09-15T22:07:47.331Z,16.94
2018-09-15T22:10:15.919Z,16.90
2018-09-15T22:12:44.473Z,16.86
2018-09-15T22:15:27.939Z,16.84
2018-09-15T22:17:58.186Z,16.77
2018-09-15T22:20:27.000Z,16.73
2018-09-15T22:22:55.595Z,16.67
2018-09-15T22:25:24.151Z,16.63
2018-09-15T22:27:52.812Z,16.58
2018-09-15T22:30:21.390Z,16.51
2018-09-15T22:32:49.943Z,16.46
2018-09-15T22:35:18.531Z,16.44
2018-09-15T22:37:47.084Z,16.42
2018-09-15T22:40:15.639Z,16.38
2018-09-15T22:42:44.633Z,16.35
2018-09-15T22:45:13.183Z,16.34
2018-09-15T22:47:41.731Z,16.31
2018-09-15T22:50:10.402Z,16.25
2018-09-15T22:52:39.022Z,16.15
2018-09-15T22:55:07.620Z,16.12
2018-09-15T22:57:36.335Z,16.11
2018-09-15T23:00:04.959Z,16.08
2018-09-15T23:02:33.531Z,16.06
2018-09-15T23:05:02.135Z,15.99
2018-09-15T23:07:30.699Z,15.97
2018-09-15T23:09:59.247Z,15.93
2018-09-15T23:12:27.833Z,15.94
2018-09-15T23:14:56.379Z,15.91
2018-09-15T23:17:24.955Z,15.87
2018-09-15T23:19:53.632Z,15.86
2018-09-15T23:22:22.183Z,15.82
2018-09-15T23:24:50.770Z,15.81
2018-09-15T23:27:19.347Z,15.81
2018-09-15T23:29:47.899Z,15.79
2018-09-15T23:32:16.467Z,15.78
2018-09-15T23:34:45.400Z,15.74
2018-09-15T23:37:13.974Z,15.66
2018-09-15T23:39:42.543Z,15.62
2018-09-15T23:42:11.131Z,15.55
2018-09-15T23:44:39.787Z,15.52
2018-09-15T23:47:08.340Z,15.49
2018-09-15T23:49:36.991Z,15.44
2018-09-15T23:52:05.539Z,15.42
2018-09-15T23:54:34.098Z,15.39
2018-09-15T23:57:02.796Z,15.34
2018-09-15T23:59:31.343Z,15.30
